RJFA(METAR)
12/04 19:00
METAR RJFA 041000Z 07004KT 9999 FEW030 BKN120 11/04 Q1024 RMK 2CU030
7AC120 A3026=
戻る
トップページへ戻る
IMOC Co,.Ltd.